Time,TemperatureF,DewpointF,PressureIn,WindDirection,WindDirectionDegrees,WindSpeedMPH,WindSpeedGustMPH,Humidity,HourlyPrecipIn,Conditions,Clouds,dailyrainin,SoftwareType,DateUTC
2013-09-09 00:21:00,73.0,44.0,29.95,NE,41,8.0,13.0,35,0.00,,,0.00,,2013-09-09 07:21:00,
2013-09-09 00:52:00,73.0,49.0,29.93,East,92,7.0,15.0,42,0.00,,,0.00,,2013-09-09 07:52:00,
2013-09-09 01:11:00,73.0,49.0,29.94,ENE,78,10.0,13.0,43,0.00,,,0.00,,2013-09-09 08:11:00,
2013-09-09 01:21:00,72.0,49.0,29.92,ENE,69,9.0,14.0,44,0.00,,,0.00,,2013-09-09 08:21:00,
2013-09-09 01:52:00,72.0,48.0,29.92,NE,47,4.0,7.0,43,0.00,,,0.00,,2013-09-09 08:52:00,
2013-09-09 02:22:00,71.0,49.0,29.91,NE,47,0.0,2.0,45,0.00,,,0.00,,2013-09-09 09:22:00,
2013-09-09 02:53:00,71.0,47.0,29.90,WSW,238,4.0,6.0,43,0.00,,,0.00,,2013-09-09 09:53:00,
2013-09-09 03:23:00,71.0,47.0,29.88,WSW,243,0.0,7.0,42,0.00,,,0.00,,2013-09-09 10:23:00,
2013-09-09 03:52:00,70.0,46.0,29.86,WSW,244,2.0,5.0,42,0.00,,,0.00,,2013-09-09 10:52:00,
2013-09-09 04:21:00,70.0,46.0,29.87,SW,233,0.0,5.0,43,0.00,,,0.00,,2013-09-09 11:21:00,
2013-09-09 04:52:00,70.0,46.0,29.87,WSW,242,0.0,4.0,43,0.00,,,0.00,,2013-09-09 11:52:00,
2013-09-09 05:11:00,69.0,46.0,29.88,WSW,242,2.0,4.0,43,0.00,,,0.00,,2013-09-09 12:11:00,
2013-09-09 05:22:00,69.0,46.0,29.88,WSW,242,2.0,3.0,44,0.00,,,0.00,,2013-09-09 12:22:00,
2013-09-09 05:52:00,69.0,46.0,29.87,WSW,242,0.0,2.0,43,0.00,,,0.00,,2013-09-09 12:52:00,
2013-09-09 06:11:00,69.0,46.0,29.87,South,171,2.0,3.0,44,0.00,,,0.00,,2013-09-09 13:11:00,
2013-09-09 06:21:00,70.0,46.0,29.89,SSE,168,2.0,3.0,43,0.00,,,0.00,,2013-09-09 13:21:00,
2013-09-09 06:52:00,72.0,46.0,29.88,SSE,168,2.0,3.0,39,0.00,,,0.00,,2013-09-09 13:52:00,
2013-09-09 07:21:00,71.0,45.0,29.88,SSE,168,1.0,4.0,40,0.00,,,0.00,,2013-09-09 14:21:00,
2013-09-09 07:52:00,72.0,45.0,29.89,SW,215,3.0,4.0,38,0.00,,,0.00,,2013-09-09 14:52:00,
2013-09-09 08:22:00,72.0,46.0,29.89,SW,215,0.0,2.0,40,0.00,,,0.00,,2013-09-09 15:22:00,
2013-09-09 08:53:00,74.0,45.0,29.91,SW,215,1.0,3.0,35,0.00,,,0.00,,2013-09-09 15:53:00,
2013-09-09 09:13:00,75.0,46.0,29.91,SW,215,0.0,2.0,36,0.00,,,0.00,,2013-09-09 16:13:00,
2013-09-09 09:24:00,77.0,44.0,29.90,SW,215,0.0,3.0,31,0.00,,,0.00,,2013-09-09 16:24:00,
2013-09-09 09:54:00,82.0,44.0,29.91,North,360,4.0,6.0,26,0.00,,,0.00,,2013-09-09 16:54:00,
2013-09-09 10:23:00,84.0,42.0,29.91,NW,311,2.0,7.0,23,0.00,,,0.00,,2013-09-09 17:23:00,
2013-09-09 10:53:00,86.0,43.0,29.90,NW,321,2.0,6.0,22,0.00,,,0.00,,2013-09-09 17:53:00,
2013-09-09 11:13:00,86.0,43.0,29.90,NNE,25,4.0,7.0,22,0.00,,,0.00,,2013-09-09 18:13:00,
2013-09-09 11:21:00,87.0,41.0,29.91,NNW,347,9.0,11.0,20,0.00,,,0.00,,2013-09-09 18:21:00,
2013-09-09 11:52:00,88.0,42.0,29.88,NNE,33,6.0,13.0,20,0.00,,,0.00,,2013-09-09 18:52:00,
2013-09-09 12:11:00,88.0,41.0,29.88,NE,55,3.0,11.0,19,0.00,,,0.00,,2013-09-09 19:11:00,
2013-09-09 12:22:00,89.0,41.0,29.88,East,87,3.0,6.0,19,0.00,,,0.00,,2013-09-09 19:22:00,
2013-09-09 12:52:00,90.0,39.0,29.88,NNW,347,1.0,13.0,17,0.00,,,0.00,,2013-09-09 19:52:00,
2013-09-09 13:12:00,90.0,39.0,29.88,NE,44,3.0,12.0,17,0.00,,,0.00,,2013-09-09 20:12:00,
2013-09-09 13:21:00,90.0,39.0,29.88,West,269,3.0,10.0,17,0.00,,,0.00,,2013-09-09 20:21:00,
2013-09-09 13:53:00,90.0,39.0,29.85,NW,307,5.0,10.0,17,0.00,,,0.00,,2013-09-09 20:53:00,
2013-09-09 14:22:00,91.0,43.0,29.84,SSE,163,10.0,15.0,19,0.00,,,0.00,,2013-09-09 21:22:00,
2013-09-09 14:54:00,90.0,43.0,29.83,SE,137,9.0,17.0,20,0.00,,,0.00,,2013-09-09 21:54:00,
2013-09-09 15:24:00,88.0,42.0,29.83,South,173,10.0,21.0,20,0.00,,,0.00,,2013-09-09 22:24:00,
2013-09-09 15:54:00,87.0,42.0,29.82,South,172,12.0,22.0,21,0.00,,,0.00,,2013-09-09 22:54:00,
2013-09-09 16:22:00,83.0,41.0,29.83,SSW,198,11.0,21.0,23,0.00,,,0.00,,2013-09-09 23:22:00,
2013-09-09 16:52:00,82.0,43.0,29.81,SE,143,12.0,21.0,25,0.00,,,0.00,,2013-09-09 23:52:00,
2013-09-09 17:12:00,81.0,42.0,29.81,SW,219,13.0,21.0,25,0.00,,,0.00,,2013-09-10 00:12:00,
2013-09-09 17:21:00,81.0,43.0,29.81,South,174,12.0,18.0,26,0.00,,,0.00,,2013-09-10 00:21:00,
2013-09-09 17:42:00,81.0,43.0,29.82,South,179,8.0,18.0,26,0.00,,,0.00,,2013-09-10 00:42:00,
2013-09-09 17:52:00,81.0,43.0,29.81,South,173,11.0,20.0,26,0.00,,,0.00,,2013-09-10 00:52:00,
2013-09-09 18:21:00,81.0,43.0,29.82,South,180,8.0,16.0,26,0.00,,,0.00,,2013-09-10 01:21:00,
2013-09-09 18:42:00,80.0,42.0,29.82,SSE,164,7.0,15.0,26,0.00,,,0.00,,2013-09-10 01:42:00,
2013-09-09 18:52:00,79.0,42.0,29.82,South,187,9.0,14.0,27,0.00,,,0.00,,2013-09-10 01:52:00,
2013-09-09 19:22:00,76.0,40.0,29.82,SSW,212,9.0,15.0,27,0.00,,,0.00,,2013-09-10 02:22:00,
2013-09-09 19:42:00,75.0,39.0,29.83,South,184,10.0,15.0,27,0.00,,,0.00,,2013-09-10 02:42:00,
2013-09-09 19:52:00,74.0,38.0,29.83,SW,232,7.0,15.0,27,0.00,,,0.00,,2013-09-10 02:52:00,
2013-09-09 20:12:00,75.0,39.0,29.83,WSW,247,5.0,14.0,27,0.00,,,0.00,,2013-09-10 03:12:00,
2013-09-09 20:22:00,76.0,36.0,29.84,SSW,211,12.0,15.0,23,0.00,,,0.00,,2013-09-10 03:22:00,
2013-09-09 20:54:00,76.0,34.0,29.83,SW,236,9.0,17.0,22,0.00,,,0.00,,2013-09-10 03:54:00,
2013-09-09 21:24:00,75.0,35.0,29.83,SW,218,5.0,10.0,23,0.00,,,0.00,,2013-09-10 04:24:00,
2013-09-09 21:53:00,73.0,34.0,29.85,WNW,296,4.0,9.0,24,0.00,,,0.00,,2013-09-10 04:53:00,
2013-09-09 22:23:00,73.0,35.0,29.86,NW,317,1.0,10.0,25,0.00,,,0.00,,2013-09-10 05:23:00,
2013-09-09 22:53:00,72.0,35.0,29.85,WSW,246,6.0,15.0,26,0.00,,,0.00,,2013-09-10 05:53:00,
2013-09-09 23:22:00,70.0,34.0,29.85,SSW,194,6.0,12.0,27,0.00,,,0.00,,2013-09-10 06:22:00,
2013-09-09 23:52:00,70.0,35.0,29.85,WSW,247,4.0,12.0,28,0.00,,,0.00,,2013-09-10 06:52:00,